sensor_id;sensor_type;location;lat;lon;timestamp;P1;durP1;ratioP1;P2;durP2;ratioP2
67146;SDS011;54061;52.036;5.558;2022-08-11T00:00:10;10.00;;;3.72;;
67146;SDS011;54061;52.036;5.558;2022-08-11T00:02:39;13.10;;;3.55;;
67146;SDS011;54061;52.036;5.558;2022-08-11T00:05:28;10.55;;;3.55;;
67146;SDS011;54061;52.036;5.558;2022-08-11T00:07:55;7.00;;;3.03;;
67146;SDS011;54061;52.036;5.558;2022-08-11T00:10:26;6.13;;;2.63;;
67146;SDS011;54061;52.036;5.558;2022-08-11T00:12:55;10.98;;;2.80;;
67146;SDS011;54061;52.036;5.558;2022-08-11T00:15:27;6.03;;;2.25;;
67146;SDS011;54061;52.036;5.558;2022-08-11T00:18:03;4.47;;;1.90;;
67146;SDS011;54061;52.036;5.558;2022-08-11T00:20:30;8.25;;;2.47;;
67146;SDS011;54061;52.036;5.558;2022-08-11T00:23:01;5.53;;;1.92;;
67146;SDS011;54061;52.036;5.558;2022-08-11T00:25:36;3.10;;;2.25;;
67146;SDS011;54061;52.036;5.558;2022-08-11T00:30:52;4.78;;;1.90;;
67146;SDS011;54061;52.036;5.558;2022-08-11T00:33:19;10.00;;;2.10;;
67146;SDS011;54061;52.036;5.558;2022-08-11T00:35:48;8.30;;;2.10;;
67146;SDS011;54061;52.036;5.558;2022-08-11T00:38:15;5.50;;;1.83;;
67146;SDS011;54061;52.036;5.558;2022-08-11T00:43:23;3.97;;;2.30;;
67146;SDS011;54061;52.036;5.558;2022-08-11T00:51:22;6.32;;;2.45;;
67146;SDS011;54061;52.036;5.558;2022-08-11T01:02:26;7.28;;;2.13;;
67146;SDS011;54061;52.036;5.558;2022-08-11T01:05:21;4.63;;;2.20;;
67146;SDS011;54061;52.036;5.558;2022-08-11T01:14:10;3.75;;;1.88;;
67146;SDS011;54061;52.036;5.558;2022-08-11T01:16:55;5.82;;;2.22;;
67146;SDS011;54061;52.036;5.558;2022-08-11T01:19:45;7.40;;;1.85;;
67146;SDS011;54061;52.036;5.558;2022-08-11T01:22:55;4.97;;;2.20;;
67146;SDS011;54061;52.036;5.558;2022-08-11T01:46:14;2.88;;;2.40;;
67146;SDS011;54061;52.036;5.558;2022-08-11T01:57:23;5.30;;;2.30;;
67146;SDS011;54061;52.036;5.558;2022-08-11T01:59:53;8.27;;;2.70;;
67146;SDS011;54061;52.036;5.558;2022-08-11T02:02:40;4.60;;;2.40;;
67146;SDS011;54061;52.036;5.558;2022-08-11T02:05:46;10.07;;;2.70;;
67146;SDS011;54061;52.036;5.558;2022-08-11T02:11:48;7.40;;;2.80;;
67146;SDS011;54061;52.036;5.558;2022-08-11T02:14:23;9.02;;;2.95;;
67146;SDS011;54061;52.036;5.558;2022-08-11T02:19:48;5.35;;;3.00;;
67146;SDS011;54061;52.036;5.558;2022-08-11T02:37:21;4.63;;;3.03;;
67146;SDS011;54061;52.036;5.558;2022-08-11T02:53:52;5.40;;;3.20;;
67146;SDS011;54061;52.036;5.558;2022-08-11T03:14:08;5.18;;;3.45;;
67146;SDS011;54061;52.036;5.558;2022-08-11T03:17:05;7.65;;;3.70;;
67146;SDS011;54061;52.036;5.558;2022-08-11T03:19:55;9.77;;;3.60;;
67146;SDS011;54061;52.036;5.558;2022-08-11T03:22:32;10.05;;;3.88;;
67146;SDS011;54061;52.036;5.558;2022-08-11T03:25:09;4.57;;;3.53;;
67146;SDS011;54061;52.036;5.558;2022-08-11T03:27:47;5.15;;;3.38;;
67146;SDS011;54061;52.036;5.558;2022-08-11T03:30:26;5.53;;;3.50;;
67146;SDS011;54061;52.036;5.558;2022-08-11T03:47:05;7.15;;;3.40;;
67146;SDS011;54061;52.036;5.558;2022-08-11T03:52:32;9.15;;;3.75;;
67146;SDS011;54061;52.036;5.558;2022-08-11T04:00:22;6.97;;;3.80;;
67146;SDS011;54061;52.036;5.558;2022-08-11T04:06:05;6.72;;;3.75;;
67146;SDS011;54061;52.036;5.558;2022-08-11T04:17:18;8.52;;;3.95;;
67146;SDS011;54061;52.036;5.558;2022-08-11T04:22:52;5.97;;;4.25;;
67146;SDS011;54061;52.036;5.558;2022-08-11T04:28:35;6.72;;;4.03;;
67146;SDS011;54061;52.036;5.558;2022-08-11T04:31:33;8.50;;;3.97;;
67146;SDS011;54061;52.036;5.558;2022-08-11T04:36:58;8.95;;;3.58;;
67146;SDS011;54061;52.036;5.558;2022-08-11T04:48:50;10.10;;;4.30;;
67146;SDS011;54061;52.036;5.558;2022-08-11T04:58:16;5.68;;;4.05;;
67146;SDS011;54061;52.036;5.558;2022-08-11T05:09:51;6.03;;;3.90;;
67146;SDS011;54061;52.036;5.558;2022-08-11T05:12:40;5.72;;;3.55;;
67146;SDS011;54061;52.036;5.558;2022-08-11T05:15:17;5.22;;;2.90;;
67146;SDS011;54061;52.036;5.558;2022-08-11T05:18:17;6.53;;;3.60;;
67146;SDS011;54061;52.036;5.558;2022-08-11T05:21:09;7.47;;;3.70;;
67146;SDS011;54061;52.036;5.558;2022-08-11T05:23:56;11.85;;;3.50;;
67146;SDS011;54061;52.036;5.558;2022-08-11T05:26:48;8.13;;;4.20;;
67146;SDS011;54061;52.036;5.558;2022-08-11T05:33:01;9.23;;;4.28;;
67146;SDS011;54061;52.036;5.558;2022-08-11T05:36:04;6.55;;;4.00;;
67146;SDS011;54061;52.036;5.558;2022-08-11T05:38:43;8.43;;;3.92;;
67146;SDS011;54061;52.036;5.558;2022-08-11T05:41:37;10.73;;;4.25;;
67146;SDS011;54061;52.036;5.558;2022-08-11T05:44:22;7.53;;;3.45;;
67146;SDS011;54061;52.036;5.558;2022-08-11T05:47:06;4.43;;;3.10;;
67146;SDS011;54061;52.036;5.558;2022-08-11T05:49:51;11.77;;;3.75;;
67146;SDS011;54061;52.036;5.558;2022-08-11T05:52:36;16.70;;;3.92;;
67146;SDS011;54061;52.036;5.558;2022-08-11T05:55:21;10.30;;;3.65;;
67146;SDS011;54061;52.036;5.558;2022-08-11T05:58:06;7.70;;;3.63;;
67146;SDS011;54061;52.036;5.558;2022-08-11T06:00:41;8.85;;;3.20;;
67146;SDS011;54061;52.036;5.558;2022-08-11T06:03:10;12.32;;;3.45;;
67146;SDS011;54061;52.036;5.558;2022-08-11T06:05:44;14.55;;;3.50;;
67146;SDS011;54061;52.036;5.558;2022-08-11T06:08:10;5.40;;;3.50;;
67146;SDS011;54061;52.036;5.558;2022-08-11T06:10:38;11.75;;;3.92;;
67146;SDS011;54061;52.036;5.558;2022-08-11T06:13:06;8.70;;;3.83;;
67146;SDS011;54061;52.036;5.558;2022-08-11T06:15:33;5.20;;;3.22;;
67146;SDS011;54061;52.036;5.558;2022-08-11T06:18:10;15.48;;;3.40;;
67146;SDS011;54061;52.036;5.558;2022-08-11T06:20:47;13.00;;;3.13;;
67146;SDS011;54061;52.036;5.558;2022-08-11T06:23:15;5.43;;;3.10;;
67146;SDS011;54061;52.036;5.558;2022-08-11T06:25:43;5.18;;;3.58;;
67146;SDS011;54061;52.036;5.558;2022-08-11T06:28:09;6.97;;;2.95;;
67146;SDS011;54061;52.036;5.558;2022-08-11T06:30:38;9.32;;;2.97;;
67146;SDS011;54061;52.036;5.558;2022-08-11T06:33:10;6.60;;;3.00;;
67146;SDS011;54061;52.036;5.558;2022-08-11T06:36:02;10.98;;;2.53;;
67146;SDS011;54061;52.036;5.558;2022-08-11T06:41:23;9.75;;;3.35;;
67146;SDS011;54061;52.036;5.558;2022-08-11T06:46:39;12.10;;;3.00;;
67146;SDS011;54061;52.036;5.558;2022-08-11T06:49:13;9.80;;;2.60;;
67146;SDS011;54061;52.036;5.558;2022-08-11T06:51:59;8.05;;;2.50;;
67146;SDS011;54061;52.036;5.558;2022-08-11T06:54:32;12.93;;;2.20;;
67146;SDS011;54061;52.036;5.558;2022-08-11T06:57:06;4.53;;;2.10;;
67146;SDS011;54061;52.036;5.558;2022-08-11T06:59:55;4.32;;;2.50;;
67146;SDS011;54061;52.036;5.558;2022-08-11T07:02:53;4.93;;;2.00;;
67146;SDS011;54061;52.036;5.558;2022-08-11T07:05:27;11.43;;;1.80;;
67146;SDS011;54061;52.036;5.558;2022-08-11T07:08:15;11.23;;;1.73;;
67146;SDS011;54061;52.036;5.558;2022-08-11T07:11:23;7.07;;;2.17;;
67146;SDS011;54061;52.036;5.558;2022-08-11T07:14:29;5.40;;;1.88;;
67146;SDS011;54061;52.036;5.558;2022-08-11T07:17:15;12.20;;;1.65;;
67146;SDS011;54061;52.036;5.558;2022-08-11T07:19:46;7.55;;;1.92;;
67146;SDS011;54061;52.036;5.558;2022-08-11T07:22:42;4.60;;;1.70;;
67146;SDS011;54061;52.036;5.558;2022-08-11T07:25:31;5.03;;;1.67;;
67146;SDS011;54061;52.036;5.558;2022-08-11T07:28:23;6.40;;;1.60;;
67146;SDS011;54061;52.036;5.558;2022-08-11T07:31:51;5.55;;;1.75;;
67146;SDS011;54061;52.036;5.558;2022-08-11T07:37:03;5.20;;;2.03;;
67146;SDS011;54061;52.036;5.558;2022-08-11T07:39:35;3.28;;;1.83;;
67146;SDS011;54061;52.036;5.558;2022-08-11T07:42:06;3.08;;;1.75;;
67146;SDS011;54061;52.036;5.558;2022-08-11T07:44:33;7.90;;;2.00;;
67146;SDS011;54061;52.036;5.558;2022-08-11T07:47:23;5.75;;;1.67;;
67146;SDS011;54061;52.036;5.558;2022-08-11T07:50:09;3.83;;;1.70;;
67146;SDS011;54061;52.036;5.558;2022-08-11T07:52:54;6.32;;;1.92;;
67146;SDS011;54061;52.036;5.558;2022-08-11T07:55:21;5.25;;;1.58;;
67146;SDS011;54061;52.036;5.558;2022-08-11T07:57:49;8.07;;;1.60;;
67146;SDS011;54061;52.036;5.558;2022-08-11T08:00:35;4.82;;;1.75;;
67146;SDS011;54061;52.036;5.558;2022-08-11T08:03:26;9.20;;;1.60;;
67146;SDS011;54061;52.036;5.558;2022-08-11T08:06:12;2.95;;;1.42;;
67146;SDS011;54061;52.036;5.558;2022-08-11T08:08:57;9.18;;;1.40;;
67146;SDS011;54061;52.036;5.558;2022-08-11T08:11:42;2.83;;;1.70;;
67146;SDS011;54061;52.036;5.558;2022-08-11T08:14:28;2.35;;;1.42;;
67146;SDS011;54061;52.036;5.558;2022-08-11T08:17:13;3.45;;;1.80;;
67146;SDS011;54061;52.036;5.558;2022-08-11T08:19:57;4.97;;;2.05;;
67146;SDS011;54061;52.036;5.558;2022-08-11T08:22:23;10.73;;;2.20;;
67146;SDS011;54061;52.036;5.558;2022-08-11T08:24:49;6.00;;;1.73;;
67146;SDS011;54061;52.036;5.558;2022-08-11T08:27:16;5.50;;;1.70;;
67146;SDS011;54061;52.036;5.558;2022-08-11T08:29:44;10.05;;;1.70;;
67146;SDS011;54061;52.036;5.558;2022-08-11T08:32:28;2.80;;;1.70;;
67146;SDS011;54061;52.036;5.558;2022-08-11T08:34:56;3.55;;;1.58;;
67146;SDS011;54061;52.036;5.558;2022-08-11T08:37:23;6.45;;;1.70;;
67146;SDS011;54061;52.036;5.558;2022-08-11T08:39:50;12.60;;;2.08;;
67146;SDS011;54061;52.036;5.558;2022-08-11T08:42:17;7.68;;;1.77;;
67146;SDS011;54061;52.036;5.558;2022-08-11T08:45:04;7.65;;;1.83;;
67146;SDS011;54061;52.036;5.558;2022-08-11T08:47:35;7.63;;;1.88;;
67146;SDS011;54061;52.036;5.558;2022-08-11T08:50:13;7.78;;;1.95;;
67146;SDS011;54061;52.036;5.558;2022-08-11T08:52:49;5.47;;;1.65;;
67146;SDS011;54061;52.036;5.558;2022-08-11T08:55:19;4.35;;;1.80;;
67146;SDS011;54061;52.036;5.558;2022-08-11T08:57:47;6.97;;;1.80;;
67146;SDS011;54061;52.036;5.558;2022-08-11T09:00:16;7.63;;;2.08;;
67146;SDS011;54061;52.036;5.558;2022-08-11T09:02:43;9.95;;;1.85;;
67146;SDS011;54061;52.036;5.558;2022-08-11T09:05:09;12.38;;;2.05;;
67146;SDS011;54061;52.036;5.558;2022-08-11T09:07:35;5.35;;;1.75;;
67146;SDS011;54061;52.036;5.558;2022-08-11T09:10:02;4.28;;;1.83;;
67146;SDS011;54061;52.036;5.558;2022-08-11T09:12:29;5.72;;;2.13;;
67146;SDS011;54061;52.036;5.558;2022-08-11T09:14:56;9.88;;;1.80;;
67146;SDS011;54061;52.036;5.558;2022-08-11T09:17:28;5.97;;;1.70;;
67146;SDS011;54061;52.036;5.558;2022-08-11T09:20:27;10.57;;;2.13;;
67146;SDS011;54061;52.036;5.558;2022-08-11T09:22:58;3.75;;;2.00;;
67146;SDS011;54061;52.036;5.558;2022-08-11T09:25:50;7.05;;;1.80;;
67146;SDS011;54061;52.036;5.558;2022-08-11T09:28:37;10.25;;;1.85;;
67146;SDS011;54061;52.036;5.558;2022-08-11T09:31:05;5.05;;;1.85;;
67146;SDS011;54061;52.036;5.558;2022-08-11T09:33:32;11.95;;;1.95;;
67146;SDS011;54061;52.036;5.558;2022-08-11T09:35:57;8.45;;;1.98;;
67146;SDS011;54061;52.036;5.558;2022-08-11T09:38:44;3.80;;;1.95;;
67146;SDS011;54061;52.036;5.558;2022-08-11T09:41:30;6.00;;;2.13;;
67146;SDS011;54061;52.036;5.558;2022-08-11T09:43:56;14.63;;;2.10;;
67146;SDS011;54061;52.036;5.558;2022-08-11T09:46:42;4.63;;;1.80;;
67146;SDS011;54061;52.036;5.558;2022-08-11T09:49:08;8.00;;;1.67;;
67146;SDS011;54061;52.036;5.558;2022-08-11T09:51:34;8.38;;;1.50;;
67146;SDS011;54061;52.036;5.558;2022-08-11T09:54:01;6.90;;;1.85;;
67146;SDS011;54061;52.036;5.558;2022-08-11T09:56:31;5.43;;;1.30;;
67146;SDS011;54061;52.036;5.558;2022-08-11T09:59:19;10.90;;;1.65;;
67146;SDS011;54061;52.036;5.558;2022-08-11T10:01:46;5.32;;;1.70;;
67146;SDS011;54061;52.036;5.558;2022-08-11T10:04:24;11.00;;;1.85;;
67146;SDS011;54061;52.036;5.558;2022-08-11T10:06:58;6.65;;;2.17;;
67146;SDS011;54061;52.036;5.558;2022-08-11T10:09:26;7.65;;;1.85;;
67146;SDS011;54061;52.036;5.558;2022-08-11T10:12:01;5.15;;;1.65;;
67146;SDS011;54061;52.036;5.558;2022-08-11T10:14:29;6.38;;;2.08;;
67146;SDS011;54061;52.036;5.558;2022-08-11T10:17:15;6.72;;;1.60;;
67146;SDS011;54061;52.036;5.558;2022-08-11T10:19:44;6.13;;;1.70;;
67146;SDS011;54061;52.036;5.558;2022-08-11T10:22:11;6.45;;;1.60;;
67146;SDS011;54061;52.036;5.558;2022-08-11T10:24:58;9.38;;;1.50;;
67146;SDS011;54061;52.036;5.558;2022-08-11T10:27:43;5.55;;;1.67;;
67146;SDS011;54061;52.036;5.558;2022-08-11T10:30:09;6.63;;;1.90;;
67146;SDS011;54061;52.036;5.558;2022-08-11T10:32:54;4.65;;;1.80;;
67146;SDS011;54061;52.036;5.558;2022-08-11T10:35:40;10.05;;;2.00;;
67146;SDS011;54061;52.036;5.558;2022-08-11T10:38:08;12.13;;;1.70;;
67146;SDS011;54061;52.036;5.558;2022-08-11T10:40:34;5.30;;;1.92;;
67146;SDS011;54061;52.036;5.558;2022-08-11T10:43:01;5.72;;;1.92;;
67146;SDS011;54061;52.036;5.558;2022-08-11T10:45:37;3.63;;;1.40;;
67146;SDS011;54061;52.036;5.558;2022-08-11T10:48:24;4.93;;;1.40;;
67146;SDS011;54061;52.036;5.558;2022-08-11T10:50:51;6.60;;;1.55;;
67146;SDS011;54061;52.036;5.558;2022-08-11T10:53:44;3.10;;;1.48;;
67146;SDS011;54061;52.036;5.558;2022-08-11T10:56:34;4.50;;;1.23;;
67146;SDS011;54061;52.036;5.558;2022-08-11T10:59:20;3.55;;;1.20;;
67146;SDS011;54061;52.036;5.558;2022-08-11T11:01:48;8.45;;;1.80;;
67146;SDS011;54061;52.036;5.558;2022-08-11T11:04:16;13.25;;;1.38;;
67146;SDS011;54061;52.036;5.558;2022-08-11T11:09:24;2.58;;;1.38;;
67146;SDS011;54061;52.036;5.558;2022-08-11T11:12:18;2.22;;;1.52;;
67146;SDS011;54061;52.036;5.558;2022-08-11T11:15:07;9.45;;;1.50;;
67146;SDS011;54061;52.036;5.558;2022-08-11T11:17:57;5.88;;;1.20;;
67146;SDS011;54061;52.036;5.558;2022-08-11T11:23:02;11.55;;;1.40;;
67146;SDS011;54061;52.036;5.558;2022-08-11T11:28:37;9.07;;;1.58;;
67146;SDS011;54061;52.036;5.558;2022-08-11T11:34:12;9.07;;;1.63;;
67146;SDS011;54061;52.036;5.558;2022-08-11T11:36:55;7.60;;;1.63;;
67146;SDS011;54061;52.036;5.558;2022-08-11T11:39:23;3.37;;;1.77;;
67146;SDS011;54061;52.036;5.558;2022-08-11T11:41:52;4.45;;;1.30;;
67146;SDS011;54061;52.036;5.558;2022-08-11T11:44:24;5.63;;;1.60;;
67146;SDS011;54061;52.036;5.558;2022-08-11T11:46:50;4.10;;;1.75;;
67146;SDS011;54061;52.036;5.558;2022-08-11T11:49:17;3.90;;;1.55;;
67146;SDS011;54061;52.036;5.558;2022-08-11T11:51:48;8.68;;;1.48;;
67146;SDS011;54061;52.036;5.558;2022-08-11T11:54:16;9.05;;;1.83;;
67146;SDS011;54061;52.036;5.558;2022-08-11T11:56:45;8.75;;;1.67;;
67146;SDS011;54061;52.036;5.558;2022-08-11T11:59:10;2.78;;;1.50;;
67146;SDS011;54061;52.036;5.558;2022-08-11T12:01:55;7.05;;;1.90;;
67146;SDS011;54061;52.036;5.558;2022-08-11T12:04:21;4.47;;;1.60;;
67146;SDS011;54061;52.036;5.558;2022-08-11T12:06:48;6.82;;;1.60;;
67146;SDS011;54061;52.036;5.558;2022-08-11T12:09:16;1.95;;;1.60;;
67146;SDS011;54061;52.036;5.558;2022-08-11T12:11:47;5.80;;;1.85;;
67146;SDS011;54061;52.036;5.558;2022-08-11T12:14:32;16.75;;;1.88;;
67146;SDS011;54061;52.036;5.558;2022-08-11T12:17:00;7.13;;;1.58;;
67146;SDS011;54061;52.036;5.558;2022-08-11T12:19:26;4.93;;;1.60;;
67146;SDS011;54061;52.036;5.558;2022-08-11T12:21:55;6.47;;;1.73;;
67146;SDS011;54061;52.036;5.558;2022-08-11T12:24:41;7.47;;;1.80;;
67146;SDS011;54061;52.036;5.558;2022-08-11T12:27:26;3.70;;;1.42;;
67146;SDS011;54061;52.036;5.558;2022-08-11T12:29:55;7.80;;;1.75;;
67146;SDS011;54061;52.036;5.558;2022-08-11T12:32:26;3.55;;;1.48;;
67146;SDS011;54061;52.036;5.558;2022-08-11T12:34:55;3.15;;;1.30;;
67146;SDS011;54061;52.036;5.558;2022-08-11T12:37:23;7.05;;;1.40;;
67146;SDS011;54061;52.036;5.558;2022-08-11T12:40:10;7.38;;;1.90;;
67146;SDS011;54061;52.036;5.558;2022-08-11T12:43:00;6.27;;;1.80;;
67146;SDS011;54061;52.036;5.558;2022-08-11T12:45:46;5.53;;;1.70;;
67146;SDS011;54061;52.036;5.558;2022-08-11T12:48:17;4.35;;;1.77;;
67146;SDS011;54061;52.036;5.558;2022-08-11T12:53:52;10.25;;;1.60;;
67146;SDS011;54061;52.036;5.558;2022-08-11T12:56:23;10.02;;;1.85;;
67146;SDS011;54061;52.036;5.558;2022-08-11T12:59:11;5.05;;;1.80;;
67146;SDS011;54061;52.036;5.558;2022-08-11T13:01:56;7.55;;;1.80;;
67146;SDS011;54061;52.036;5.558;2022-08-11T13:04:40;4.78;;;1.40;;
67146;SDS011;54061;52.036;5.558;2022-08-11T13:07:20;4.55;;;1.63;;
67146;SDS011;54061;52.036;5.558;2022-08-11T13:09:46;4.95;;;1.70;;
67146;SDS011;54061;52.036;5.558;2022-08-11T13:12:11;5.82;;;1.70;;
67146;SDS011;54061;52.036;5.558;2022-08-11T13:14:57;5.13;;;1.58;;
67146;SDS011;54061;52.036;5.558;2022-08-11T13:17:24;4.30;;;1.67;;
67146;SDS011;54061;52.036;5.558;2022-08-11T13:19:50;9.35;;;1.60;;
67146;SDS011;54061;52.036;5.558;2022-08-11T13:22:17;7.47;;;1.80;;
67146;SDS011;54061;52.036;5.558;2022-08-11T13:24:44;8.75;;;1.58;;
67146;SDS011;54061;52.036;5.558;2022-08-11T13:27:12;8.27;;;1.48;;
67146;SDS011;54061;52.036;5.558;2022-08-11T13:29:37;3.38;;;1.50;;
67146;SDS011;54061;52.036;5.558;2022-08-11T13:32:06;8.00;;;2.00;;
67146;SDS011;54061;52.036;5.558;2022-08-11T13:34:32;7.70;;;1.65;;
67146;SDS011;54061;52.036;5.558;2022-08-11T13:37:05;6.18;;;1.70;;
67146;SDS011;54061;52.036;5.558;2022-08-11T13:39:33;5.65;;;1.45;;
67146;SDS011;54061;52.036;5.558;2022-08-11T13:42:00;9.77;;;1.60;;
67146;SDS011;54061;52.036;5.558;2022-08-11T13:44:28;2.22;;;1.48;;
67146;SDS011;54061;52.036;5.558;2022-08-11T13:46:57;3.08;;;1.50;;
67146;SDS011;54061;52.036;5.558;2022-08-11T13:49:25;11.02;;;1.58;;
67146;SDS011;54061;52.036;5.558;2022-08-11T13:51:51;4.03;;;1.73;;
67146;SDS011;54061;52.036;5.558;2022-08-11T13:54:20;2.72;;;1.50;;
67146;SDS011;54061;52.036;5.558;2022-08-11T13:56:49;5.78;;;1.50;;
67146;SDS011;54061;52.036;5.558;2022-08-11T13:59:18;7.53;;;1.40;;
67146;SDS011;54061;52.036;5.558;2022-08-11T14:01:47;5.10;;;1.67;;
67146;SDS011;54061;52.036;5.558;2022-08-11T14:04:22;6.43;;;1.80;;
67146;SDS011;54061;52.036;5.558;2022-08-11T14:06:59;7.97;;;1.70;;
67146;SDS011;54061;52.036;5.558;2022-08-11T14:09:31;6.38;;;1.70;;
67146;SDS011;54061;52.036;5.558;2022-08-11T14:12:01;3.35;;;1.65;;
67146;SDS011;54061;52.036;5.558;2022-08-11T14:14:54;12.80;;;1.70;;
67146;SDS011;54061;52.036;5.558;2022-08-11T14:17:24;5.43;;;1.50;;
67146;SDS011;54061;52.036;5.558;2022-08-11T14:19:52;5.85;;;1.40;;
67146;SDS011;54061;52.036;5.558;2022-08-11T14:22:18;6.10;;;1.80;;
67146;SDS011;54061;52.036;5.558;2022-08-11T14:24:46;4.13;;;1.40;;
67146;SDS011;54061;52.036;5.558;2022-08-11T14:27:15;6.50;;;1.63;;
67146;SDS011;54061;52.036;5.558;2022-08-11T14:29:42;5.40;;;1.45;;
67146;SDS011;54061;52.036;5.558;2022-08-11T14:32:09;4.63;;;1.50;;
67146;SDS011;54061;52.036;5.558;2022-08-11T14:34:39;2.25;;;1.52;;
67146;SDS011;54061;52.036;5.558;2022-08-11T14:39:40;7.35;;;1.70;;
67146;SDS011;54061;52.036;5.558;2022-08-11T14:42:09;11.27;;;2.60;;
67146;SDS011;54061;52.036;5.558;2022-08-11T14:44:55;11.02;;;2.08;;
67146;SDS011;54061;52.036;5.558;2022-08-11T14:47:43;4.45;;;1.73;;
67146;SDS011;54061;52.036;5.558;2022-08-11T14:50:13;4.90;;;1.70;;
67146;SDS011;54061;52.036;5.558;2022-08-11T14:52:43;7.88;;;1.65;;
67146;SDS011;54061;52.036;5.558;2022-08-11T14:55:29;4.63;;;1.10;;
67146;SDS011;54061;52.036;5.558;2022-08-11T14:58:18;4.00;;;1.40;;
67146;SDS011;54061;52.036;5.558;2022-08-11T15:00:45;6.13;;;1.30;;
67146;SDS011;54061;52.036;5.558;2022-08-11T15:03:16;4.97;;;1.65;;
67146;SDS011;54061;52.036;5.558;2022-08-11T15:05:52;4.15;;;1.38;;
67146;SDS011;54061;52.036;5.558;2022-08-11T15:08:20;4.05;;;1.45;;
67146;SDS011;54061;52.036;5.558;2022-08-11T15:11:09;7.28;;;1.40;;
67146;SDS011;54061;52.036;5.558;2022-08-11T15:13:55;4.55;;;1.73;;
67146;SDS011;54061;52.036;5.558;2022-08-11T15:16:23;2.53;;;1.40;;
67146;SDS011;54061;52.036;5.558;2022-08-11T15:19:08;4.88;;;1.60;;
67146;SDS011;54061;52.036;5.558;2022-08-11T15:21:35;2.10;;;1.50;;
67146;SDS011;54061;52.036;5.558;2022-08-11T15:24:19;9.43;;;1.50;;
67146;SDS011;54061;52.036;5.558;2022-08-11T15:26:44;3.63;;;1.30;;
67146;SDS011;54061;52.036;5.558;2022-08-11T15:29:30;6.25;;;1.45;;
67146;SDS011;54061;52.036;5.558;2022-08-11T15:32:17;5.63;;;1.52;;
67146;SDS011;54061;52.036;5.558;2022-08-11T15:34:52;2.63;;;1.60;;
67146;SDS011;54061;52.036;5.558;2022-08-11T15:37:44;11.90;;;1.65;;
67146;SDS011;54061;52.036;5.558;2022-08-11T15:40:17;10.23;;;1.50;;
67146;SDS011;54061;52.036;5.558;2022-08-11T15:43:13;7.82;;;1.65;;
67146;SDS011;54061;52.036;5.558;2022-08-11T15:46:15;3.35;;;1.48;;
67146;SDS011;54061;52.036;5.558;2022-08-11T15:48:46;3.83;;;1.30;;
67146;SDS011;54061;52.036;5.558;2022-08-11T15:51:33;8.20;;;1.63;;
67146;SDS011;54061;52.036;5.558;2022-08-11T15:54:02;4.03;;;1.63;;
67146;SDS011;54061;52.036;5.558;2022-08-11T15:56:32;3.83;;;1.27;;
67146;SDS011;54061;52.036;5.558;2022-08-11T15:59:01;4.65;;;1.48;;
67146;SDS011;54061;52.036;5.558;2022-08-11T16:01:47;5.70;;;1.35;;
67146;SDS011;54061;52.036;5.558;2022-08-11T16:04:32;2.80;;;1.50;;
67146;SDS011;54061;52.036;5.558;2022-08-11T16:07:02;2.22;;;1.38;;
67146;SDS011;54061;52.036;5.558;2022-08-11T16:12:03;7.38;;;1.48;;
67146;SDS011;54061;52.036;5.558;2022-08-11T16:14:36;13.10;;;1.70;;
67146;SDS011;54061;52.036;5.558;2022-08-11T16:17:24;7.28;;;1.50;;
67146;SDS011;54061;52.036;5.558;2022-08-11T16:19:52;6.35;;;1.67;;
67146;SDS011;54061;52.036;5.558;2022-08-11T16:22:22;6.95;;;1.65;;
67146;SDS011;54061;52.036;5.558;2022-08-11T16:24:52;6.63;;;1.42;;
67146;SDS011;54061;52.036;5.558;2022-08-11T16:27:20;2.67;;;1.40;;
67146;SDS011;54061;52.036;5.558;2022-08-11T16:29:47;3.72;;;1.48;;
67146;SDS011;54061;52.036;5.558;2022-08-11T16:32:16;5.50;;;1.48;;
67146;SDS011;54061;52.036;5.558;2022-08-11T16:34:50;7.88;;;1.60;;
67146;SDS011;54061;52.036;5.558;2022-08-11T16:37:38;8.25;;;1.60;;
67146;SDS011;54061;52.036;5.558;2022-08-11T16:40:24;4.97;;;1.70;;
67146;SDS011;54061;52.036;5.558;2022-08-11T16:42:50;3.53;;;1.60;;
67146;SDS011;54061;52.036;5.558;2022-08-11T16:45:36;1.92;;;1.35;;
67146;SDS011;54061;52.036;5.558;2022-08-11T16:48:22;4.40;;;1.40;;
67146;SDS011;54061;52.036;5.558;2022-08-11T16:50:52;6.88;;;1.30;;
67146;SDS011;54061;52.036;5.558;2022-08-11T16:53:18;5.22;;;1.42;;
67146;SDS011;54061;52.036;5.558;2022-08-11T16:55:44;6.10;;;1.60;;
67146;SDS011;54061;52.036;5.558;2022-08-11T16:58:12;5.85;;;1.27;;
67146;SDS011;54061;52.036;5.558;2022-08-11T17:00:57;7.93;;;1.75;;
67146;SDS011;54061;52.036;5.558;2022-08-11T17:03:25;4.20;;;1.30;;
67146;SDS011;54061;52.036;5.558;2022-08-11T17:06:09;2.28;;;1.65;;
67146;SDS011;54061;52.036;5.558;2022-08-11T17:08:54;9.98;;;1.45;;
67146;SDS011;54061;52.036;5.558;2022-08-11T17:11:45;4.93;;;1.42;;
67146;SDS011;54061;52.036;5.558;2022-08-11T17:14:51;4.30;;;1.70;;
67146;SDS011;54061;52.036;5.558;2022-08-11T17:17:29;3.42;;;1.50;;
67146;SDS011;54061;52.036;5.558;2022-08-11T17:20:00;8.75;;;1.67;;
67146;SDS011;54061;52.036;5.558;2022-08-11T17:22:31;2.72;;;1.60;;
67146;SDS011;54061;52.036;5.558;2022-08-11T17:25:18;7.38;;;1.48;;
67146;SDS011;54061;52.036;5.558;2022-08-11T17:27:47;8.18;;;1.50;;
67146;SDS011;54061;52.036;5.558;2022-08-11T17:30:14;6.75;;;1.40;;
67146;SDS011;54061;52.036;5.558;2022-08-11T17:32:42;2.88;;;1.20;;
67146;SDS011;54061;52.036;5.558;2022-08-11T17:35:37;3.38;;;1.63;;
67146;SDS011;54061;52.036;5.558;2022-08-11T17:38:15;4.80;;;1.55;;
67146;SDS011;54061;52.036;5.558;2022-08-11T17:40:52;5.15;;;1.67;;
67146;SDS011;54061;52.036;5.558;2022-08-11T17:43:39;4.30;;;1.30;;
67146;SDS011;54061;52.036;5.558;2022-08-11T17:46:24;6.93;;;1.35;;
67146;SDS011;54061;52.036;5.558;2022-08-11T17:49:10;8.60;;;1.70;;
67146;SDS011;54061;52.036;5.558;2022-08-11T17:51:38;16.58;;;1.60;;
67146;SDS011;54061;52.036;5.558;2022-08-11T17:54:24;3.50;;;1.33;;
67146;SDS011;54061;52.036;5.558;2022-08-11T17:57:09;10.20;;;1.40;;
67146;SDS011;54061;52.036;5.558;2022-08-11T17:59:54;7.80;;;1.55;;
67146;SDS011;54061;52.036;5.558;2022-08-11T18:02:29;4.72;;;1.50;;
67146;SDS011;54061;52.036;5.558;2022-08-11T18:05:32;9.18;;;1.60;;
67146;SDS011;54061;52.036;5.558;2022-08-11T18:08:04;6.82;;;1.50;;
67146;SDS011;54061;52.036;5.558;2022-08-11T18:10:51;13.93;;;1.40;;
67146;SDS011;54061;52.036;5.558;2022-08-11T18:13:37;4.55;;;1.52;;
67146;SDS011;54061;52.036;5.558;2022-08-11T18:16:23;12.45;;;1.50;;
67146;SDS011;54061;52.036;5.558;2022-08-11T18:19:08;5.07;;;1.23;;
67146;SDS011;54061;52.036;5.558;2022-08-11T18:21:55;9.60;;;1.50;;
67146;SDS011;54061;52.036;5.558;2022-08-11T18:24:46;6.35;;;1.40;;
67146;SDS011;54061;52.036;5.558;2022-08-11T18:27:33;5.43;;;1.60;;
67146;SDS011;54061;52.036;5.558;2022-08-11T18:30:19;4.43;;;1.45;;
67146;SDS011;54061;52.036;5.558;2022-08-11T18:33:05;10.98;;;1.60;;
67146;SDS011;54061;52.036;5.558;2022-08-11T18:35:52;9.65;;;1.48;;
67146;SDS011;54061;52.036;5.558;2022-08-11T18:38:41;7.45;;;1.58;;
67146;SDS011;54061;52.036;5.558;2022-08-11T18:41:28;8.55;;;1.45;;
67146;SDS011;54061;52.036;5.558;2022-08-11T18:44:14;13.65;;;2.05;;
67146;SDS011;54061;52.036;5.558;2022-08-11T18:47:04;8.20;;;1.60;;
67146;SDS011;54061;52.036;5.558;2022-08-11T18:49:51;14.23;;;1.63;;
67146;SDS011;54061;52.036;5.558;2022-08-11T18:52:38;5.18;;;1.30;;
67146;SDS011;54061;52.036;5.558;2022-08-11T18:55:25;9.20;;;1.45;;
67146;SDS011;54061;52.036;5.558;2022-08-11T18:58:13;3.60;;;1.27;;
67146;SDS011;54061;52.036;5.558;2022-08-11T19:00:59;4.90;;;1.25;;
67146;SDS011;54061;52.036;5.558;2022-08-11T19:03:45;7.70;;;1.55;;
67146;SDS011;54061;52.036;5.558;2022-08-11T19:06:32;9.52;;;1.30;;
67146;SDS011;54061;52.036;5.558;2022-08-11T19:09:17;7.80;;;1.48;;
67146;SDS011;54061;52.036;5.558;2022-08-11T19:12:03;5.07;;;1.23;;